sensor_id;sensor_type;location;lat;lon;timestamp;temperature;humidity
20366;DHT22;10341;49.894;8.822;2023-05-10T00:00:51;13.50;99.90
20366;DHT22;10341;49.894;8.822;2023-05-10T00:06:10;13.50;99.90
20366;DHT22;10341;49.894;8.822;2023-05-10T00:11:30;13.40;99.90
20366;DHT22;10341;49.894;8.822;2023-05-10T00:16:50;13.30;99.90
20366;DHT22;10341;49.894;8.822;2023-05-10T00:22:09;13.30;99.90
20366;DHT22;10341;49.894;8.822;2023-05-10T00:27:29;13.20;99.90
20366;DHT22;10341;49.894;8.822;2023-05-10T00:32:49;13.10;99.90
20366;DHT22;10341;49.894;8.822;2023-05-10T00:38:08;13.10;99.90
20366;DHT22;10341;49.894;8.822;2023-05-10T00:43:28;13.10;99.90
20366;DHT22;10341;49.894;8.822;2023-05-10T00:48:47;13.10;99.90
20366;DHT22;10341;49.894;8.822;2023-05-10T00:54:07;13.10;99.90
20366;DHT22;10341;49.894;8.822;2023-05-10T00:59:27;13.10;99.90
20366;DHT22;10341;49.894;8.822;2023-05-10T01:04:48;13.10;99.90
20366;DHT22;10341;49.894;8.822;2023-05-10T01:10:09;13.10;99.90
20366;DHT22;10341;49.894;8.822;2023-05-10T01:15:29;13.10;99.90
20366;DHT22;10341;49.894;8.822;2023-05-10T01:20:58;13.10;99.90
20366;DHT22;10341;49.894;8.822;2023-05-10T01:26:34;13.10;99.90
20366;DHT22;10341;49.894;8.822;2023-05-10T01:37:41;13.10;99.90
20366;DHT22;10341;49.894;8.822;2023-05-10T01:43:13;13.00;99.90
20366;DHT22;10341;49.894;8.822;2023-05-10T01:48:34;13.00;99.90
20366;DHT22;10341;49.894;8.822;2023-05-10T01:54:00;13.00;99.90
20366;DHT22;10341;49.894;8.822;2023-05-10T01:59:21;12.90;99.90
20366;DHT22;10341;49.894;8.822;2023-05-10T02:04:42;12.90;99.90
20366;DHT22;10341;49.894;8.822;2023-05-10T02:10:05;12.90;99.90
20366;DHT22;10341;49.894;8.822;2023-05-10T02:15:25;12.80;99.90
20366;DHT22;10341;49.894;8.822;2023-05-10T02:20:46;12.80;99.90
20366;DHT22;10341;49.894;8.822;2023-05-10T02:26:06;12.80;99.90
20366;DHT22;10341;49.894;8.822;2023-05-10T02:31:26;12.80;99.90
20366;DHT22;10341;49.894;8.822;2023-05-10T02:36:46;12.80;99.90
20366;DHT22;10341;49.894;8.822;2023-05-10T02:42:06;12.70;99.90
20366;DHT22;10341;49.894;8.822;2023-05-10T02:47:25;12.70;99.90
20366;DHT22;10341;49.894;8.822;2023-05-10T02:52:51;12.70;99.90
20366;DHT22;10341;49.894;8.822;2023-05-10T02:58:13;12.60;99.90
20366;DHT22;10341;49.894;8.822;2023-05-10T03:03:33;12.60;99.90
20366;DHT22;10341;49.894;8.822;2023-05-10T03:08:52;12.60;99.90
20366;DHT22;10341;49.894;8.822;2023-05-10T03:19:58;12.60;99.90
20366;DHT22;10341;49.894;8.822;2023-05-10T03:25:23;12.60;99.90
20366;DHT22;10341;49.894;8.822;2023-05-10T03:30:46;12.60;99.90
20366;DHT22;10341;49.894;8.822;2023-05-10T03:36:06;12.60;99.90
20366;DHT22;10341;49.894;8.822;2023-05-10T03:41:26;12.60;99.90
20366;DHT22;10341;49.894;8.822;2023-05-10T03:46:46;12.60;99.90
20366;DHT22;10341;49.894;8.822;2023-05-10T03:52:06;12.50;99.90
20366;DHT22;10341;49.894;8.822;2023-05-10T03:57:25;12.50;99.90
20366;DHT22;10341;49.894;8.822;2023-05-10T04:02:45;12.50;99.90
20366;DHT22;10341;49.894;8.822;2023-05-10T04:08:09;12.50;99.90
20366;DHT22;10341;49.894;8.822;2023-05-10T04:13:29;12.50;99.90
20366;DHT22;10341;49.894;8.822;2023-05-10T04:18:48;12.50;99.90
20366;DHT22;10341;49.894;8.822;2023-05-10T04:24:08;12.60;99.90
20366;DHT22;10341;49.894;8.822;2023-05-10T04:29:28;12.70;99.90
20366;DHT22;10341;49.894;8.822;2023-05-10T04:34:47;12.70;99.90
20366;DHT22;10341;49.894;8.822;2023-05-10T04:40:07;12.80;99.90
20366;DHT22;10341;49.894;8.822;2023-05-10T04:45:27;12.90;99.90
20366;DHT22;10341;49.894;8.822;2023-05-10T04:50:47;13.00;99.90
20366;DHT22;10341;49.894;8.822;2023-05-10T04:56:06;13.00;99.90
20366;DHT22;10341;49.894;8.822;2023-05-10T05:01:26;13.10;99.90
20366;DHT22;10341;49.894;8.822;2023-05-10T05:06:46;13.10;99.90
20366;DHT22;10341;49.894;8.822;2023-05-10T05:12:05;13.20;99.90
20366;DHT22;10341;49.894;8.822;2023-05-10T05:17:25;13.10;99.90
20366;DHT22;10341;49.894;8.822;2023-05-10T05:22:44;13.10;99.90
20366;DHT22;10341;49.894;8.822;2023-05-10T05:28:04;13.20;99.90
20366;DHT22;10341;49.894;8.822;2023-05-10T05:33:24;13.20;99.90
20366;DHT22;10341;49.894;8.822;2023-05-10T05:38:43;13.30;99.90
20366;DHT22;10341;49.894;8.822;2023-05-10T05:44:03;13.30;99.90
20366;DHT22;10341;49.894;8.822;2023-05-10T05:49:23;13.30;99.90
20366;DHT22;10341;49.894;8.822;2023-05-10T05:54:42;13.40;99.90
20366;DHT22;10341;49.894;8.822;2023-05-10T06:00:02;13.50;99.90
20366;DHT22;10341;49.894;8.822;2023-05-10T06:05:31;13.60;99.90
20366;DHT22;10341;49.894;8.822;2023-05-10T06:10:51;13.70;99.90
20366;DHT22;10341;49.894;8.822;2023-05-10T06:16:10;13.80;99.90
20366;DHT22;10341;49.894;8.822;2023-05-10T06:21:29;14.00;99.90
20366;DHT22;10341;49.894;8.822;2023-05-10T06:26:49;14.00;99.90
20366;DHT22;10341;49.894;8.822;2023-05-10T06:32:09;14.20;99.90
20366;DHT22;10341;49.894;8.822;2023-05-10T06:37:28;14.40;99.90
20366;DHT22;10341;49.894;8.822;2023-05-10T06:42:49;14.50;99.90
20366;DHT22;10341;49.894;8.822;2023-05-10T06:48:08;14.60;99.90
20366;DHT22;10341;49.894;8.822;2023-05-10T06:53:27;14.60;99.90
20366;DHT22;10341;49.894;8.822;2023-05-10T06:58:48;14.70;99.90
20366;DHT22;10341;49.894;8.822;2023-05-10T07:04:07;15.10;99.90
20366;DHT22;10341;49.894;8.822;2023-05-10T07:09:27;15.30;99.90
20366;DHT22;10341;49.894;8.822;2023-05-10T07:14:46;15.40;99.90
20366;DHT22;10341;49.894;8.822;2023-05-10T07:20:06;15.30;99.90
20366;DHT22;10341;49.894;8.822;2023-05-10T07:25:26;15.50;99.90
20366;DHT22;10341;49.894;8.822;2023-05-10T07:30:46;15.50;99.90
20366;DHT22;10341;49.894;8.822;2023-05-10T07:36:06;15.40;99.90
20366;DHT22;10341;49.894;8.822;2023-05-10T07:41:25;15.70;99.90
20366;DHT22;10341;49.894;8.822;2023-05-10T07:46:45;16.10;99.90
20366;DHT22;10341;49.894;8.822;2023-05-10T07:52:04;16.30;99.90
20366;DHT22;10341;49.894;8.822;2023-05-10T07:57:24;16.30;99.90
20366;DHT22;10341;49.894;8.822;2023-05-10T08:02:43;16.50;99.90
20366;DHT22;10341;49.894;8.822;2023-05-10T08:08:02;16.70;99.90
20366;DHT22;10341;49.894;8.822;2023-05-10T08:13:22;17.00;99.90
20366;DHT22;10341;49.894;8.822;2023-05-10T08:18:41;17.20;99.90
20366;DHT22;10341;49.894;8.822;2023-05-10T08:24:01;17.90;99.90
20366;DHT22;10341;49.894;8.822;2023-05-10T08:29:20;18.60;99.90
20366;DHT22;10341;49.894;8.822;2023-05-10T08:34:40;18.90;99.90
20366;DHT22;10341;49.894;8.822;2023-05-10T08:40:00;18.70;99.90
20366;DHT22;10341;49.894;8.822;2023-05-10T08:45:22;18.80;99.90
20366;DHT22;10341;49.894;8.822;2023-05-10T08:50:45;18.00;99.90
20366;DHT22;10341;49.894;8.822;2023-05-10T08:56:06;17.40;99.90
20366;DHT22;10341;49.894;8.822;2023-05-10T09:01:25;16.60;99.90
20366;DHT22;10341;49.894;8.822;2023-05-10T09:06:45;15.90;99.90
20366;DHT22;10341;49.894;8.822;2023-05-10T09:12:05;15.40;99.90
20366;DHT22;10341;49.894;8.822;2023-05-10T09:17:26;15.10;99.90
20366;DHT22;10341;49.894;8.822;2023-05-10T09:22:47;15.30;99.90
20366;DHT22;10341;49.894;8.822;2023-05-10T09:28:07;15.60;99.90
20366;DHT22;10341;49.894;8.822;2023-05-10T09:33:27;16.10;99.90
20366;DHT22;10341;49.894;8.822;2023-05-10T09:38:48;16.30;99.90
20366;DHT22;10341;49.894;8.822;2023-05-10T09:44:08;16.40;99.90
20366;DHT22;10341;49.894;8.822;2023-05-10T09:49:28;17.20;99.90
20366;DHT22;10341;49.894;8.822;2023-05-10T09:54:53;18.20;99.90
20366;DHT22;10341;49.894;8.822;2023-05-10T10:00:18;17.80;99.90
20366;DHT22;10341;49.894;8.822;2023-05-10T10:05:40;17.70;99.90
20366;DHT22;10341;49.894;8.822;2023-05-10T10:11:00;17.10;99.90
20366;DHT22;10341;49.894;8.822;2023-05-10T10:16:20;16.10;99.90
20366;DHT22;10341;49.894;8.822;2023-05-10T10:21:40;15.40;99.90
20366;DHT22;10341;49.894;8.822;2023-05-10T10:27:34;15.10;99.90
20366;DHT22;10341;49.894;8.822;2023-05-10T10:50:06;15.00;99.90
20366;DHT22;10341;49.894;8.822;2023-05-10T10:55:26;15.20;99.90
20366;DHT22;10341;49.894;8.822;2023-05-10T11:00:48;15.50;99.90
20366;DHT22;10341;49.894;8.822;2023-05-10T11:06:08;16.00;99.90
20366;DHT22;10341;49.894;8.822;2023-05-10T11:11:28;16.90;99.90
20366;DHT22;10341;49.894;8.822;2023-05-10T11:16:48;17.40;99.90
20366;DHT22;10341;49.894;8.822;2023-05-10T11:22:13;17.30;99.90
20366;DHT22;10341;49.894;8.822;2023-05-10T11:27:37;16.70;99.90
20366;DHT22;10341;49.894;8.822;2023-05-10T11:32:56;17.00;99.90
20366;DHT22;10341;49.894;8.822;2023-05-10T11:38:16;18.20;99.90
20366;DHT22;10341;49.894;8.822;2023-05-10T11:43:35;17.90;99.90
20366;DHT22;10341;49.894;8.822;2023-05-10T11:49:02;17.10;99.90
20366;DHT22;10341;49.894;8.822;2023-05-10T11:54:23;16.70;99.90
20366;DHT22;10341;49.894;8.822;2023-05-10T11:59:42;16.90;99.90
20366;DHT22;10341;49.894;8.822;2023-05-10T12:05:02;17.80;99.90
20366;DHT22;10341;49.894;8.822;2023-05-10T12:10:26;19.70;99.90
20366;DHT22;10341;49.894;8.822;2023-05-10T12:15:45;20.80;99.90
20366;DHT22;10341;49.894;8.822;2023-05-10T12:21:05;21.80;99.90
20366;DHT22;10341;49.894;8.822;2023-05-10T12:26:25;23.10;99.90
20366;DHT22;10341;49.894;8.822;2023-05-10T12:31:58;22.90;99.90
20366;DHT22;10341;49.894;8.822;2023-05-10T12:37:17;23.00;99.90
20366;DHT22;10341;49.894;8.822;2023-05-10T12:42:43;22.80;99.90
20366;DHT22;10341;49.894;8.822;2023-05-10T12:48:03;21.50;99.90
20366;DHT22;10341;49.894;8.822;2023-05-10T12:53:23;20.90;99.90
20366;DHT22;10341;49.894;8.822;2023-05-10T12:58:43;20.90;99.90
20366;DHT22;10341;49.894;8.822;2023-05-10T13:04:06;21.30;99.90
20366;DHT22;10341;49.894;8.822;2023-05-10T13:09:26;22.20;99.90
20366;DHT22;10341;49.894;8.822;2023-05-10T13:14:48;22.50;99.90
20366;DHT22;10341;49.894;8.822;2023-05-10T13:20:07;21.50;99.90
20366;DHT22;10341;49.894;8.822;2023-05-10T13:25:26;20.80;99.90
20366;DHT22;10341;49.894;8.822;2023-05-10T13:30:46;20.50;99.90
20366;DHT22;10341;49.894;8.822;2023-05-10T13:36:06;20.60;99.90
20366;DHT22;10341;49.894;8.822;2023-05-10T13:41:25;20.20;99.90
20366;DHT22;10341;49.894;8.822;2023-05-10T13:46:44;19.80;99.90
20366;DHT22;10341;49.894;8.822;2023-05-10T13:52:04;19.40;99.90
20366;DHT22;10341;49.894;8.822;2023-05-10T13:57:25;19.50;99.90
20366;DHT22;10341;49.894;8.822;2023-05-10T14:02:45;19.20;99.90
20366;DHT22;10341;49.894;8.822;2023-05-10T14:08:04;19.50;99.90
20366;DHT22;10341;49.894;8.822;2023-05-10T14:13:23;19.60;99.90
20366;DHT22;10341;49.894;8.822;2023-05-10T14:18:43;20.30;99.90
20366;DHT22;10341;49.894;8.822;2023-05-10T14:24:04;20.70;99.90
20366;DHT22;10341;49.894;8.822;2023-05-10T14:29:23;21.10;99.90
20366;DHT22;10341;49.894;8.822;2023-05-10T14:34:42;21.30;99.90
20366;DHT22;10341;49.894;8.822;2023-05-10T14:40:01;21.30;99.90
20366;DHT22;10341;49.894;8.822;2023-05-10T14:45:21;21.00;99.90
20366;DHT22;10341;49.894;8.822;2023-05-10T14:50:41;21.20;99.90
20366;DHT22;10341;49.894;8.822;2023-05-10T14:56:00;20.50;99.90
20366;DHT22;10341;49.894;8.822;2023-05-10T15:01:20;20.80;99.90
20366;DHT22;10341;49.894;8.822;2023-05-10T15:06:40;21.40;99.90
20366;DHT22;10341;49.894;8.822;2023-05-10T15:12:00;21.90;99.90
20366;DHT22;10341;49.894;8.822;2023-05-10T15:17:19;22.40;99.90
20366;DHT22;10341;49.894;8.822;2023-05-10T15:22:39;22.10;99.90
20366;DHT22;10341;49.894;8.822;2023-05-10T15:27:58;22.10;99.90
20366;DHT22;10341;49.894;8.822;2023-05-10T15:33:17;21.60;99.90
20366;DHT22;10341;49.894;8.822;2023-05-10T15:38:36;20.90;99.90
20366;DHT22;10341;49.894;8.822;2023-05-10T15:43:57;20.50;99.90
20366;DHT22;10341;49.894;8.822;2023-05-10T15:49:18;20.60;99.90
20366;DHT22;10341;49.894;8.822;2023-05-10T15:54:37;20.10;99.90
20366;DHT22;10341;49.894;8.822;2023-05-10T15:59:56;20.00;99.90
20366;DHT22;10341;49.894;8.822;2023-05-10T16:05:16;19.80;99.90
20366;DHT22;10341;49.894;8.822;2023-05-10T16:10:35;19.50;99.90
20366;DHT22;10341;49.894;8.822;2023-05-10T16:15:54;19.60;99.90
20366;DHT22;10341;49.894;8.822;2023-05-10T16:21:15;19.60;99.90
20366;DHT22;10341;49.894;8.822;2023-05-10T16:26:34;19.40;99.90
20366;DHT22;10341;49.894;8.822;2023-05-10T16:31:59;19.60;99.90
20366;DHT22;10341;49.894;8.822;2023-05-10T16:37:18;19.70;99.90
20366;DHT22;10341;49.894;8.822;2023-05-10T16:42:38;19.70;99.90
20366;DHT22;10341;49.894;8.822;2023-05-10T16:47:57;19.60;99.90
20366;DHT22;10341;49.894;8.822;2023-05-10T16:53:16;19.30;99.90
20366;DHT22;10341;49.894;8.822;2023-05-10T16:58:35;19.10;99.90
20366;DHT22;10341;49.894;8.822;2023-05-10T17:03:54;18.80;99.90
20366;DHT22;10341;49.894;8.822;2023-05-10T17:09:13;18.80;99.90
20366;DHT22;10341;49.894;8.822;2023-05-10T17:14:32;18.80;99.90
20366;DHT22;10341;49.894;8.822;2023-05-10T17:19:51;18.90;99.90
20366;DHT22;10341;49.894;8.822;2023-05-10T17:25:11;18.90;99.90
20366;DHT22;10341;49.894;8.822;2023-05-10T17:30:30;18.60;99.90
20366;DHT22;10341;49.894;8.822;2023-05-10T17:35:50;18.20;99.90
20366;DHT22;10341;49.894;8.822;2023-05-10T17:41:10;18.10;99.90
20366;DHT22;10341;49.894;8.822;2023-05-10T17:46:29;17.90;99.90
20366;DHT22;10341;49.894;8.822;2023-05-10T17:51:48;17.70;99.90
20366;DHT22;10341;49.894;8.822;2023-05-10T17:57:08;17.50;99.90
20366;DHT22;10341;49.894;8.822;2023-05-10T18:02:27;17.20;99.90
20366;DHT22;10341;49.894;8.822;2023-05-10T18:07:46;17.10;99.90
20366;DHT22;10341;49.894;8.822;2023-05-10T18:13:06;16.90;99.90
20366;DHT22;10341;49.894;8.822;2023-05-10T18:18:26;16.60;99.90
20366;DHT22;10341;49.894;8.822;2023-05-10T18:23:46;16.30;99.90
20366;DHT22;10341;49.894;8.822;2023-05-10T18:29:05;16.00;99.90
20366;DHT22;10341;49.894;8.822;2023-05-10T18:34:24;15.80;99.90
20366;DHT22;10341;49.894;8.822;2023-05-10T18:39:43;15.70;99.90
20366;DHT22;10341;49.894;8.822;2023-05-10T18:45:03;15.40;99.90
20366;DHT22;10341;49.894;8.822;2023-05-10T18:50:22;15.20;99.90
20366;DHT22;10341;49.894;8.822;2023-05-10T18:55:41;14.90;99.90
20366;DHT22;10341;49.894;8.822;2023-05-10T19:01:00;14.70;99.90
20366;DHT22;10341;49.894;8.822;2023-05-10T19:06:20;14.40;99.90
20366;DHT22;10341;49.894;8.822;2023-05-10T19:11:39;14.10;99.90
20366;DHT22;10341;49.894;8.822;2023-05-10T19:16:59;13.80;99.90
20366;DHT22;10341;49.894;8.822;2023-05-10T19:22:18;13.60;99.90
20366;DHT22;10341;49.894;8.822;2023-05-10T19:27:38;13.40;99.90
20366;DHT22;10341;49.894;8.822;2023-05-10T19:32:57;13.20;99.90
20366;DHT22;10341;49.894;8.822;2023-05-10T19:38:19;13.00;99.90
20366;DHT22;10341;49.894;8.822;2023-05-10T19:43:39;12.90;99.90
20366;DHT22;10341;49.894;8.822;2023-05-10T19:48:59;12.70;99.90
20366;DHT22;10341;49.894;8.822;2023-05-10T19:54:18;12.60;99.90
20366;DHT22;10341;49.894;8.822;2023-05-10T19:59:37;12.50;99.90
20366;DHT22;10341;49.894;8.822;2023-05-10T20:04:56;12.30;99.90
20366;DHT22;10341;49.894;8.822;2023-05-10T20:10:16;12.30;99.90
20366;DHT22;10341;49.894;8.822;2023-05-10T20:15:35;12.30;99.90
20366;DHT22;10341;49.894;8.822;2023-05-10T20:20:57;12.20;99.90
20366;DHT22;10341;49.894;8.822;2023-05-10T20:26:16;12.20;99.90
20366;DHT22;10341;49.894;8.822;2023-05-10T20:31:35;12.00;99.90
20366;DHT22;10341;49.894;8.822;2023-05-10T20:36:54;12.20;99.90
20366;DHT22;10341;49.894;8.822;2023-05-10T20:42:13;12.10;99.90
20366;DHT22;10341;49.894;8.822;2023-05-10T20:47:33;11.90;99.90
20366;DHT22;10341;49.894;8.822;2023-05-10T20:52:53;11.80;99.90
20366;DHT22;10341;49.894;8.822;2023-05-10T20:58:12;11.70;99.90
20366;DHT22;10341;49.894;8.822;2023-05-10T21:03:32;11.60;99.90
20366;DHT22;10341;49.894;8.822;2023-05-10T21:08:51;11.50;99.90
20366;DHT22;10341;49.894;8.822;2023-05-10T21:14:10;11.50;99.90
20366;DHT22;10341;49.894;8.822;2023-05-10T21:19:29;11.40;99.90
20366;DHT22;10341;49.894;8.822;2023-05-10T21:24:48;11.40;99.90
20366;DHT22;10341;49.894;8.822;2023-05-10T21:30:08;11.30;99.90
20366;DHT22;10341;49.894;8.822;2023-05-10T21:35:28;11.30;99.90
20366;DHT22;10341;49.894;8.822;2023-05-10T21:40:48;11.40;99.90
20366;DHT22;10341;49.894;8.822;2023-05-10T21:46:07;11.40;99.90
20366;DHT22;10341;49.894;8.822;2023-05-10T21:51:27;11.50;99.90
20366;DHT22;10341;49.894;8.822;2023-05-10T21:56:47;11.50;99.90
20366;DHT22;10341;49.894;8.822;2023-05-10T22:02:07;11.40;99.90
20366;DHT22;10341;49.894;8.822;2023-05-10T22:07:25;11.40;99.90
20366;DHT22;10341;49.894;8.822;2023-05-10T22:12:45;11.40;99.90
20366;DHT22;10341;49.894;8.822;2023-05-10T22:18:04;11.40;99.90
20366;DHT22;10341;49.894;8.822;2023-05-10T22:23:24;11.30;99.90
20366;DHT22;10341;49.894;8.822;2023-05-10T22:28:43;11.30;99.90
20366;DHT22;10341;49.894;8.822;2023-05-10T22:34:02;11.20;99.90
20366;DHT22;10341;49.894;8.822;2023-05-10T22:39:22;11.20;99.90
20366;DHT22;10341;49.894;8.822;2023-05-10T22:44:41;11.00;99.90
20366;DHT22;10341;49.894;8.822;2023-05-10T22:50:01;11.00;99.90
20366;DHT22;10341;49.894;8.822;2023-05-10T22:55:23;10.90;99.90
20366;DHT22;10341;49.894;8.822;2023-05-10T23:00:42;10.80;99.90
20366;DHT22;10341;49.894;8.822;2023-05-10T23:06:01;10.60;99.90
20366;DHT22;10341;49.894;8.822;2023-05-10T23:11:21;10.50;99.90
20366;DHT22;10341;49.894;8.822;2023-05-10T23:16:40;10.50;99.90
20366;DHT22;10341;49.894;8.822;2023-05-10T23:22:00;10.40;99.90
20366;DHT22;10341;49.894;8.822;2023-05-10T23:27:19;10.40;99.90
20366;DHT22;10341;49.894;8.822;2023-05-10T23:32:38;10.40;99.90
20366;DHT22;10341;49.894;8.822;2023-05-10T23:37:57;10.30;99.90
20366;DHT22;10341;49.894;8.822;2023-05-10T23:43:16;10.20;99.90
20366;DHT22;10341;49.894;8.822;2023-05-10T23:48:37;10.20;99.90
20366;DHT22;10341;49.894;8.822;2023-05-10T23:53:56;10.20;99.90
20366;DHT22;10341;49.894;8.822;2023-05-10T23:59:15;10.10;99.90
